createdAt,value
2022-11-27T00:03:22.287Z,0.20
2022-11-27T00:08:13.898Z,0.63
2022-11-27T00:13:05.534Z,0.10
2022-11-27T00:17:57.708Z,0.10
2022-11-27T00:22:49.337Z,0.20
2022-11-27T00:27:41.055Z,0.55
2022-11-27T00:32:32.796Z,0.20
2022-11-27T00:37:24.629Z,0.20
2022-11-27T00:42:16.329Z,0.28
2022-11-27T00:47:08.053Z,0.30
2022-11-27T00:51:59.855Z,0.20
2022-11-27T00:56:51.619Z,0.30
2022-11-27T01:01:44.313Z,0.30
2022-11-27T01:06:36.973Z,0.35
2022-11-27T01:11:31.194Z,0.50
2022-11-27T01:16:25.691Z,0.40
2022-11-27T01:21:20.334Z,0.45
2022-11-27T01:26:13.249Z,0.40
2022-11-27T01:31:06.803Z,0.30
2022-11-27T01:36:01.342Z,0.50
2022-11-27T01:41:04.129Z,0.30
2022-11-27T01:45:56.152Z,0.35
2022-11-27T01:50:47.959Z,0.40
2022-11-27T01:55:46.391Z,0.63
2022-11-27T02:00:38.632Z,0.30
2022-11-27T02:05:30.574Z,0.93
2022-11-27T02:10:32.748Z,0.30
2022-11-27T02:15:43.885Z,0.20
2022-11-27T02:20:47.956Z,0.30
2022-11-27T02:26:18.626Z,0.40
2022-11-27T02:31:26.367Z,0.40
2022-11-27T02:36:24.766Z,0.50
2022-11-27T02:41:22.898Z,0.38
2022-11-27T02:46:16.638Z,0.60
2022-11-27T02:51:09.044Z,0.60
2022-11-27T02:56:03.570Z,0.77
2022-11-27T03:00:56.563Z,0.47
2022-11-27T03:05:51.518Z,0.90
2022-11-27T03:11:04.432Z,1.35
2022-11-27T03:16:04.904Z,1.45
2022-11-27T03:21:06.169Z,1.45
2022-11-27T03:25:57.873Z,1.73
2022-11-27T03:30:49.782Z,1.00
2022-11-27T03:35:41.614Z,0.73
2022-11-27T03:40:45.351Z,1.80
2022-11-27T03:46:00.755Z,0.98
2022-11-27T03:51:04.420Z,1.00
2022-11-27T03:56:28.381Z,1.23
2022-11-27T04:01:23.826Z,0.82
2022-11-27T04:06:15.745Z,0.95
2022-11-27T04:11:08.519Z,0.98
2022-11-27T04:16:01.865Z,1.80
2022-11-27T04:20:53.748Z,1.80
2022-11-27T04:25:45.856Z,0.90
2022-11-27T04:30:37.461Z,2.63
2022-11-27T04:35:29.197Z,2.03
2022-11-27T04:40:20.879Z,2.65
2022-11-27T04:45:12.574Z,2.42
2022-11-27T04:50:04.828Z,2.85
2022-11-27T04:55:00.248Z,1.85
2022-11-27T04:59:52.199Z,2.03
2022-11-27T05:04:43.866Z,2.22
2022-11-27T05:09:35.608Z,2.22
2022-11-27T05:14:29.358Z,2.97
2022-11-27T05:19:23.471Z,2.95
2022-11-27T05:24:17.027Z,1.92
2022-11-27T05:29:10.418Z,3.38
2022-11-27T05:34:02.726Z,2.53
2022-11-27T05:38:54.404Z,2.08
2022-11-27T05:43:46.092Z,2.42
2022-11-27T05:48:37.850Z,1.77
2022-11-27T05:53:29.956Z,2.67
2022-11-27T05:58:21.633Z,3.47
2022-11-27T06:03:13.360Z,2.30
2022-11-27T06:08:05.097Z,3.53
2022-11-27T06:12:56.907Z,3.17
2022-11-27T06:17:51.615Z,2.83
2022-11-27T06:22:44.241Z,2.55
2022-11-27T06:27:36.797Z,2.25
2022-11-27T06:32:28.417Z,3.03
2022-11-27T06:37:20.270Z,2.78
2022-11-27T06:42:12.918Z,2.78
2022-11-27T06:47:04.625Z,3.53
2022-11-27T06:51:56.472Z,2.80
2022-11-27T06:56:50.310Z,3.72
2022-11-27T07:01:42.887Z,3.08
2022-11-27T07:06:34.564Z,3.38
2022-11-27T07:11:28.679Z,3.55
2022-11-27T07:16:20.453Z,2.47
2022-11-27T07:21:12.689Z,3.25
2022-11-27T07:26:16.013Z,2.53
2022-11-27T07:31:07.722Z,2.75
2022-11-27T07:36:14.070Z,2.55
2022-11-27T07:41:06.732Z,2.78
2022-11-27T07:45:59.161Z,2.83
2022-11-27T07:50:51.147Z,3.40
2022-11-27T07:55:43.100Z,2.63
2022-11-27T08:00:35.697Z,3.28
2022-11-27T08:05:27.744Z,4.03
2022-11-27T08:10:19.432Z,2.70
2022-11-27T08:15:11.538Z,3.60
2022-11-27T08:20:04.418Z,3.45
2022-11-27T08:24:56.185Z,3.30
2022-11-27T08:29:48.043Z,3.22
2022-11-27T08:34:40.287Z,2.78
2022-11-27T08:39:32.140Z,3.10
2022-11-27T08:44:23.970Z,3.30
2022-11-27T08:49:15.717Z,2.42
2022-11-27T08:54:07.776Z,2.30
2022-11-27T08:58:59.480Z,3.13
2022-11-27T09:03:52.872Z,2.70
2022-11-27T09:08:45.960Z,2.72
2022-11-27T09:13:39.308Z,3.13
2022-11-27T09:18:31.457Z,2.95
2022-11-27T09:23:23.556Z,3.17
2022-11-27T09:28:15.558Z,2.05
2022-11-27T09:33:07.370Z,3.42
2022-11-27T09:37:59.165Z,3.85
2022-11-27T09:42:59.817Z,2.72
2022-11-27T09:47:54.482Z,3.65
2022-11-27T09:53:01.022Z,3.30
2022-11-27T09:58:15.465Z,2.80
2022-11-27T10:03:27.399Z,4.70
2022-11-27T10:08:47.081Z,4.80
2022-11-27T10:13:54.386Z,4.53
2022-11-27T10:18:58.533Z,3.88
2022-11-27T10:24:27.812Z,4.50
2022-11-27T10:29:36.444Z,4.25
2022-11-27T10:34:37.188Z,3.70
2022-11-27T10:39:36.714Z,3.28
2022-11-27T10:44:32.908Z,3.20
2022-11-27T10:49:24.566Z,3.88
2022-11-27T10:54:26.531Z,4.50
2022-11-27T10:59:34.429Z,4.75
2022-11-27T11:04:38.483Z,3.45
2022-11-27T11:09:34.645Z,3.70
2022-11-27T11:14:27.311Z,4.47
2022-11-27T11:19:39.064Z,3.75
2022-11-27T11:24:32.904Z,3.35
2022-11-27T11:29:30.781Z,4.88
2022-11-27T11:34:30.610Z,3.28
2022-11-27T11:39:31.991Z,3.75
2022-11-27T11:44:31.413Z,2.88
2022-11-27T11:49:28.016Z,3.63
2022-11-27T11:54:30.500Z,3.72
2022-11-27T11:59:50.578Z,3.72
2022-11-27T12:04:48.064Z,3.28
2022-11-27T12:09:55.141Z,3.13
2022-11-27T12:14:56.777Z,2.85
2022-11-27T12:19:54.615Z,3.70
2022-11-27T12:24:54.360Z,4.95
2022-11-27T12:29:58.321Z,3.58
2022-11-27T12:35:21.943Z,4.82
2022-11-27T12:40:36.379Z,4.78
2022-11-27T12:45:36.401Z,5.13
2022-11-27T12:50:42.077Z,5.07
2022-11-27T12:55:34.372Z,4.80
2022-11-27T13:00:30.991Z,3.85
2022-11-27T13:05:28.549Z,3.60
2022-11-27T13:10:34.032Z,2.85
2022-11-27T13:15:40.508Z,3.60
2022-11-27T13:20:38.653Z,3.67
2022-11-27T13:30:25.983Z,3.53
2022-11-27T13:35:30.736Z,3.55
2022-11-27T13:40:28.206Z,3.80
2022-11-27T13:45:38.079Z,3.35
2022-11-27T13:50:31.642Z,2.35
2022-11-27T13:55:32.188Z,2.83
2022-11-27T14:00:50.568Z,2.22
2022-11-27T14:05:44.396Z,3.22
2022-11-27T14:10:48.392Z,2.17
2022-11-27T14:15:41.334Z,3.58
2022-11-27T14:20:37.650Z,2.22
2022-11-27T14:25:36.316Z,2.92
2022-11-27T14:30:33.376Z,2.45
2022-11-27T14:35:27.819Z,2.35
2022-11-27T14:40:25.920Z,2.88
2022-11-27T14:50:14.531Z,2.05
2022-11-27T14:55:13.882Z,2.05
2022-11-27T15:00:30.142Z,2.40
2022-11-27T15:05:25.732Z,3.17
2022-11-27T15:10:39.663Z,2.83
2022-11-27T15:15:35.402Z,3.72
2022-11-27T15:20:39.205Z,3.38
2022-11-27T15:25:36.724Z,2.95
2022-11-27T15:30:28.720Z,3.47
2022-11-27T15:35:36.318Z,2.90
2022-11-27T15:40:40.480Z,2.40
2022-11-27T15:45:34.424Z,5.45
2022-11-27T15:50:26.489Z,3.70
2022-11-27T15:55:18.739Z,3.33
2022-11-27T16:00:11.769Z,4.03
2022-11-27T16:05:05.007Z,3.42
2022-11-27T16:09:57.157Z,3.78
2022-11-27T16:14:49.269Z,3.97
2022-11-27T16:19:41.317Z,3.00
2022-11-27T16:24:33.293Z,3.67
2022-11-27T16:29:25.108Z,4.68
2022-11-27T16:34:17.197Z,3.15
2022-11-27T16:39:08.857Z,4.90
2022-11-27T16:44:00.909Z,3.97
2022-11-27T16:48:54.128Z,5.43
2022-11-27T16:53:49.032Z,4.15
2022-11-27T16:58:42.959Z,3.78
2022-11-27T17:03:35.232Z,3.97
2022-11-27T17:08:27.177Z,4.22
2022-11-27T17:13:18.885Z,4.35
2022-11-27T17:18:11.116Z,3.58
2022-11-27T17:23:02.956Z,3.67
2022-11-27T17:27:54.669Z,4.53
2022-11-27T17:32:46.380Z,4.95
2022-11-27T17:37:38.168Z,5.30
2022-11-27T17:42:29.804Z,3.90
2022-11-27T17:47:21.650Z,3.45
2022-11-27T17:52:13.540Z,4.53
2022-11-27T17:57:05.325Z,6.07
2022-11-27T18:01:57.208Z,4.20
2022-11-27T18:06:49.055Z,4.13
2022-11-27T18:11:40.755Z,5.65
2022-11-27T18:16:35.898Z,4.13
2022-11-27T18:21:28.783Z,5.13
2022-11-27T18:26:30.209Z,5.32
2022-11-27T18:31:31.494Z,4.88
2022-11-27T18:36:23.891Z,4.72
2022-11-27T18:41:22.096Z,5.35
2022-11-27T18:46:15.428Z,6.00
2022-11-27T18:51:15.760Z,5.57
2022-11-27T18:56:14.152Z,4.47
2022-11-27T19:01:08.804Z,4.07
2022-11-27T19:06:01.559Z,3.95
2022-11-27T19:10:53.269Z,5.30
2022-11-27T19:15:46.461Z,5.38
2022-11-27T19:20:39.203Z,3.85
2022-11-27T19:25:32.820Z,5.68
2022-11-27T19:30:24.514Z,5.43
2022-11-27T19:35:16.240Z,4.75
2022-11-27T19:40:08.962Z,3.70
2022-11-27T19:45:00.719Z,3.83
2022-11-27T19:49:52.945Z,4.18
2022-11-27T19:54:45.480Z,5.68
2022-11-27T19:59:40.026Z,4.78
2022-11-27T20:04:31.663Z,4.72
2022-11-27T20:09:23.406Z,4.38
2022-11-27T20:14:15.199Z,4.00
2022-11-27T20:19:07.172Z,3.50
2022-11-27T20:23:58.907Z,3.90
2022-11-27T20:28:52.613Z,4.03
2022-11-27T20:33:44.535Z,3.15
2022-11-27T20:38:36.273Z,2.95
2022-11-27T20:43:28.242Z,3.33
2022-11-27T20:48:19.884Z,4.50
2022-11-27T20:53:11.591Z,4.63
2022-11-27T20:58:03.172Z,3.78
2022-11-27T21:02:54.887Z,3.90
2022-11-27T21:07:46.737Z,3.83
2022-11-27T21:12:39.069Z,4.53
2022-11-27T21:17:31.203Z,5.13
2022-11-27T21:22:23.087Z,4.00
2022-11-27T21:27:14.728Z,3.55
2022-11-27T21:32:06.464Z,4.25
2022-11-27T21:36:58.282Z,4.03
2022-11-27T21:41:52.136Z,4.30
2022-11-27T21:46:47.809Z,3.15
2022-11-27T21:51:40.333Z,3.83
2022-11-27T21:56:34.401Z,4.18
2022-11-27T22:01:26.750Z,4.25
2022-11-27T22:06:19.241Z,4.80
2022-11-27T22:11:13.856Z,4.38
2022-11-27T22:16:10.845Z,3.40
2022-11-27T22:21:08.132Z,3.25
2022-11-27T22:26:05.109Z,2.93
2022-11-27T22:30:57.519Z,3.72
2022-11-27T22:35:49.488Z,3.22
2022-11-27T22:40:43.713Z,3.30
2022-11-27T22:45:39.132Z,2.90
2022-11-27T22:50:31.118Z,3.00
2022-11-27T22:55:22.892Z,3.35
2022-11-27T23:00:15.626Z,3.25
2022-11-27T23:05:07.488Z,3.13
2022-11-27T23:09:59.656Z,3.80
2022-11-27T23:14:51.296Z,2.88
2022-11-27T23:19:42.960Z,3.00
2022-11-27T23:24:34.808Z,4.97
2022-11-27T23:29:26.528Z,2.70
2022-11-27T23:34:18.345Z,3.13
2022-11-27T23:39:12.826Z,3.15
2022-11-27T23:44:05.048Z,4.40
2022-11-27T23:48:59.530Z,3.28
2022-11-27T23:53:52.655Z,3.17
2022-11-27T23:58:47.269Z,3.08
